Time;durP1;ratioP1;P1;durP2;ratioP2;P2;SDS_P1;SDS_P2;PMS_P1;PMS_P2;Temp;Humidity;BMP_temperature;BMP_pressure;BME280_temperature;BME280_humidity;BME280_pressure;Samples;Min_cycle;Max_cycle;Signal;HPM_P1;HPM_P2
2021/07/28 00:02:03;;;;;;;9.18;6.20;;;;;;;;;;5016129;28;20676;-71
2021/07/28 00:04:31;;;;;;;8.07;5.68;;;;;;;;;;5016827;28;20071;-72
2021/07/28 00:06:56;;;;;;;9.27;6.57;;;;;;;;;;5013714;28;20032;-71
2021/07/28 00:09:21;;;;;;;9.20;6.47;;;;;;;;;;5012402;28;20041;-71
2021/07/28 00:11:47;;;;;;;8.45;6.15;;;;;;;;;;5020427;28;20356;-71
2021/07/28 00:14:12;;;;;;;8.07;6.20;;;;;;;;;;5008067;28;20453;-71
2021/07/28 00:16:37;;;;;;;10.45;5.90;;;;;;;;;;5017668;28;20048;-72
2021/07/28 00:19:08;;;;;;;9.20;6.50;;;;;;;;;;5010985;28;20029;-71
2021/07/28 00:24:17;;;;;;;9.75;6.07;;;;;;;;;;5008538;28;20132;-70
2021/07/28 00:26:42;;;;;;;10.13;6.70;;;;;;;;;;5012053;28;20090;-70
2021/07/28 00:29:07;;;;;;;9.57;6.30;;;;;;;;;;5014089;28;20500;-71
2021/07/28 00:31:32;;;;;;;8.88;5.18;;;;;;;;;;5008058;28;20083;-71
2021/07/28 00:33:57;;;;;;;8.13;5.20;;;;;;;;;;5023347;28;20037;-70
2021/07/28 00:36:23;;;;;;;7.53;4.60;;;;;;;;;;5015651;28;20025;-71
2021/07/28 00:38:48;;;;;;;8.67;4.60;;;;;;;;;;5007503;28;20703;-72
2021/07/28 00:41:14;;;;;;;6.95;3.95;;;;;;;;;;5012238;28;20276;-70
2021/07/28 00:43:39;;;;;;;5.80;3.60;;;;;;;;;;5018936;28;20064;-70
2021/07/28 00:46:04;;;;;;;4.65;3.05;;;;;;;;;;5008740;28;20040;-71
2021/07/28 00:48:29;;;;;;;5.10;3.60;;;;;;;;;;5012184;28;20040;-72
2021/07/28 00:50:55;;;;;;;6.45;4.25;;;;;;;;;;5020062;28;20276;-70
2021/07/28 00:53:21;;;;;;;7.85;4.60;;;;;;;;;;5015535;28;20029;-71
2021/07/28 00:55:47;;;;;;;7.93;4.50;;;;;;;;;;5018940;28;20470;-70
2021/07/28 00:58:12;;;;;;;7.82;4.55;;;;;;;;;;5010476;28;20461;-71
2021/07/28 01:00:38;;;;;;;7.47;3.92;;;;;;;;;;5005287;28;20034;-70
2021/07/28 01:03:03;;;;;;;6.40;4.15;;;;;;;;;;5013670;28;20025;-70
2021/07/28 01:05:28;;;;;;;7.47;4.38;;;;;;;;;;5008425;28;20458;-73
2021/07/28 01:07:53;;;;;;;6.10;4.25;;;;;;;;;;5014135;28;20037;-71
2021/07/28 01:10:19;;;;;;;5.70;3.67;;;;;;;;;;5010366;28;20033;-71
2021/07/28 01:12:51;;;;;;;5.60;3.70;;;;;;;;;;5009043;28;20030;-70
2021/07/28 01:15:31;;;;;;;5.68;3.30;;;;;;;;;;5008288;28;20034;-71
2021/07/28 01:17:57;;;;;;;7.43;4.20;;;;;;;;;;5021085;28;20048;-72
2021/07/28 01:20:23;;;;;;;5.78;3.40;;;;;;;;;;5012510;28;20061;-70
2021/07/28 01:22:48;;;;;;;5.88;3.45;;;;;;;;;;5009208;28;20045;-71
2021/07/28 01:25:14;;;;;;;8.05;3.78;;;;;;;;;;5008003;28;20072;-71
2021/07/28 01:27:39;;;;;;;6.47;3.92;;;;;;;;;;5014028;28;20046;-71
2021/07/28 01:30:04;;;;;;;6.90;4.43;;;;;;;;;;5002720;28;20054;-70
2021/07/28 01:32:30;;;;;;;6.57;3.92;;;;;;;;;;5022372;28;20909;-72
2021/07/28 01:34:55;;;;;;;6.63;4.15;;;;;;;;;;5011730;28;20029;-72
2021/07/28 01:37:21;;;;;;;7.25;4.47;;;;;;;;;;5020758;28;20072;-72
2021/07/28 01:39:46;;;;;;;6.00;4.65;;;;;;;;;;5006924;28;20029;-71
2021/07/28 01:42:11;;;;;;;6.90;4.43;;;;;;;;;;5012255;28;20052;-71
2021/07/28 01:44:38;;;;;;;7.97;4.40;;;;;;;;;;5020207;28;20028;-71
2021/07/28 01:47:03;;;;;;;8.45;5.20;;;;;;;;;;5016797;28;20018;-70
2021/07/28 01:49:28;;;;;;;7.00;4.55;;;;;;;;;;5008740;28;20132;-70
2021/07/28 01:51:53;;;;;;;6.13;4.03;;;;;;;;;;5008946;28;20670;-73
2021/07/28 01:54:18;;;;;;;7.63;4.77;;;;;;;;;;5016538;28;20272;-71
2021/07/28 01:56:43;;;;;;;7.00;4.53;;;;;;;;;;5014617;28;20367;-71
2021/07/28 01:59:12;;;;;;;6.93;4.68;;;;;;;;;;5014671;28;20289;-71
2021/07/28 02:01:38;;;;;;;6.27;4.03;;;;;;;;;;5013633;28;20022;-71
2021/07/28 02:04:03;;;;;;;6.18;4.28;;;;;;;;;;5025315;28;20087;-71
2021/07/28 02:06:28;;;;;;;4.53;3.47;;;;;;;;;;5020631;28;20104;-72
2021/07/28 02:08:53;;;;;;;7.50;3.95;;;;;;;;;;5010249;28;20066;-71
2021/07/28 02:11:18;;;;;;;7.75;3.90;;;;;;;;;;5012469;28;20380;-71
2021/07/28 02:13:43;;;;;;;5.90;3.50;;;;;;;;;;5018319;28;20436;-71
2021/07/28 02:16:09;;;;;;;6.30;4.00;;;;;;;;;;5017416;28;20283;-72
2021/07/28 02:18:34;;;;;;;6.67;3.90;;;;;;;;;;5029600;28;20880;-72
2021/07/28 02:21:01;;;;;;;6.20;3.63;;;;;;;;;;5009334;28;20281;-73
2021/07/28 02:23:26;;;;;;;5.63;3.83;;;;;;;;;;5009993;28;20473;-71
2021/07/28 02:25:51;;;;;;;5.80;3.73;;;;;;;;;;5020361;28;20025;-72
2021/07/28 02:28:16;;;;;;;6.80;3.63;;;;;;;;;;5010900;28;20333;-72
2021/07/28 02:30:41;;;;;;;5.40;4.00;;;;;;;;;;5012275;28;20308;-71
2021/07/28 02:33:07;;;;;;;5.97;3.93;;;;;;;;;;5017369;28;20669;-72
2021/07/28 02:35:32;;;;;;;5.93;3.73;;;;;;;;;;5012391;28;20277;-72
2021/07/28 02:37:57;;;;;;;6.43;3.63;;;;;;;;;;5010958;28;20281;-71
2021/07/28 02:40:22;;;;;;;4.78;3.38;;;;;;;;;;5013736;28;20013;-73
2021/07/28 02:42:48;;;;;;;6.07;3.88;;;;;;;;;;5014570;28;20124;-72
2021/07/28 02:45:13;;;;;;;6.50;3.83;;;;;;;;;;5010922;28;20018;-71
2021/07/28 02:47:39;;;;;;;5.45;3.70;;;;;;;;;;5010926;28;20030;-73
2021/07/28 02:50:04;;;;;;;6.47;3.80;;;;;;;;;;5012453;28;20048;-72
2021/07/28 02:52:29;;;;;;;4.82;3.13;;;;;;;;;;5013427;28;20120;-72
2021/07/28 02:54:55;;;;;;;4.95;2.92;;;;;;;;;;5020549;28;20105;-72
2021/07/28 02:57:20;;;;;;;5.57;3.72;;;;;;;;;;5021254;28;20464;-73
2021/07/28 02:59:45;;;;;;;7.07;4.00;;;;;;;;;;5010335;28;20378;-72
2021/07/28 03:02:10;;;;;;;5.20;3.13;;;;;;;;;;5015303;28;20316;-70
2021/07/28 03:04:35;;;;;;;7.68;3.83;;;;;;;;;;5012771;28;20955;-71
2021/07/28 03:07:00;;;;;;;5.75;3.60;;;;;;;;;;5024039;28;20080;-70
2021/07/28 03:09:26;;;;;;;5.85;3.70;;;;;;;;;;5012854;28;20474;-69
2021/07/28 03:11:51;;;;;;;5.07;3.28;;;;;;;;;;5007330;28;20448;-69
2021/07/28 03:14:16;;;;;;;4.63;3.63;;;;;;;;;;5013489;28;20390;-70
2021/07/28 03:16:41;;;;;;;5.47;3.92;;;;;;;;;;5010356;28;20273;-73
2021/07/28 03:19:06;;;;;;;6.32;3.95;;;;;;;;;;5012487;28;20097;-71
2021/07/28 03:21:33;;;;;;;5.20;3.60;;;;;;;;;;5016318;28;20132;-71
2021/07/28 03:23:58;;;;;;;6.25;4.03;;;;;;;;;;5011725;28;20286;-73
2021/07/28 03:26:23;;;;;;;5.60;3.70;;;;;;;;;;5017173;28;20397;-71
2021/07/28 03:28:48;;;;;;;6.57;3.77;;;;;;;;;;5010964;28;20338;-71
2021/07/28 03:31:13;;;;;;;7.47;4.32;;;;;;;;;;5024094;28;20776;-71
2021/07/28 03:33:39;;;;;;;6.18;3.97;;;;;;;;;;5012202;28;20522;-71
2021/07/28 03:36:05;;;;;;;8.88;3.80;;;;;;;;;;5015580;28;20121;-69
2021/07/28 03:38:30;;;;;;;7.57;4.45;;;;;;;;;;5016174;28;20018;-69
2021/07/28 03:40:55;;;;;;;7.40;4.15;;;;;;;;;;5008617;28;20515;-70
2021/07/28 03:43:20;;;;;;;8.20;4.50;;;;;;;;;;5016284;28;20118;-71
2021/07/28 03:45:46;;;;;;;7.32;4.75;;;;;;;;;;5008534;28;20296;-70
2021/07/28 03:48:11;;;;;;;7.18;4.68;;;;;;;;;;5007918;28;20348;-70
2021/07/28 03:50:36;;;;;;;9.45;5.00;;;;;;;;;;5018824;28;20026;-76
2021/07/28 03:53:02;;;;;;;9.10;5.90;;;;;;;;;;5009258;28;20033;-77
2021/07/28 03:55:27;;;;;;;8.93;5.50;;;;;;;;;;5020090;28;20064;-76
2021/07/28 03:57:52;;;;;;;8.48;5.55;;;;;;;;;;5009231;28;20022;-76
2021/07/28 04:00:18;;;;;;;9.82;6.32;;;;;;;;;;5006870;28;20040;-75
2021/07/28 04:02:43;;;;;;;7.80;5.60;;;;;;;;;;5013467;28;20654;-77
2021/07/28 04:05:08;;;;;;;10.77;5.88;;;;;;;;;;5009596;28;20036;-76
2021/07/28 04:07:34;;;;;;;10.85;6.28;;;;;;;;;;5009494;28;20220;-76
2021/07/28 04:09:59;;;;;;;7.50;5.72;;;;;;;;;;5010299;28;20037;-76
2021/07/28 04:12:24;;;;;;;10.13;6.67;;;;;;;;;;5019083;28;20030;-78
2021/07/28 04:14:49;;;;;;;8.30;5.57;;;;;;;;;;5016063;28;20272;-76
2021/07/28 04:17:14;;;;;;;8.90;6.07;;;;;;;;;;5025611;28;20303;-65
2021/07/28 04:19:43;;;;;;;10.15;6.35;;;;;;;;;;5010526;28;20292;-64
2021/07/28 04:22:08;;;;;;;12.52;6.20;;;;;;;;;;5016154;28;20610;-66
2021/07/28 04:24:33;;;;;;;10.43;6.07;;;;;;;;;;5008848;28;20017;-65
2021/07/28 04:26:58;;;;;;;11.95;6.65;;;;;;;;;;5025904;28;20386;-65
2021/07/28 04:29:23;;;;;;;9.40;6.63;;;;;;;;;;5008451;28;20384;-64
2021/07/28 04:31:49;;;;;;;8.37;5.43;;;;;;;;;;5011934;28;20304;-65
2021/07/28 04:34:15;;;;;;;8.33;5.67;;;;;;;;;;5026130;28;20279;-65
2021/07/28 04:36:40;;;;;;;8.90;5.80;;;;;;;;;;5009123;28;20765;-65
2021/07/28 04:39:05;;;;;;;8.83;5.77;;;;;;;;;;5020855;28;20030;-65
2021/07/28 04:41:30;;;;;;;9.90;6.13;;;;;;;;;;5014630;28;20271;-67
2021/07/28 04:43:56;;;;;;;10.57;6.27;;;;;;;;;;5017196;28;20301;-67
2021/07/28 04:46:21;;;;;;;10.93;6.07;;;;;;;;;;5019968;28;20286;-65
2021/07/28 04:48:47;;;;;;;12.35;6.40;;;;;;;;;;5015195;28;20280;-66
2021/07/28 04:51:12;;;;;;;8.52;5.88;;;;;;;;;;5009216;28;20434;-66
2021/07/28 04:53:37;;;;;;;9.40;5.15;;;;;;;;;;5009167;28;20115;-66
2021/07/28 04:56:02;;;;;;;6.70;5.05;;;;;;;;;;5015587;28;20018;-66
2021/07/28 04:58:27;;;;;;;9.18;5.00;;;;;;;;;;5018479;28;20064;-66
2021/07/28 05:00:53;;;;;;;6.28;4.53;;;;;;;;;;5014460;28;20072;-66
2021/07/28 05:03:18;;;;;;;7.40;3.95;;;;;;;;;;5009772;28;20029;-66
2021/07/28 05:05:44;;;;;;;6.25;4.28;;;;;;;;;;5014394;28;20034;-67
2021/07/28 05:08:09;;;;;;;7.50;3.92;;;;;;;;;;5016256;28;20381;-63
2021/07/28 05:10:35;;;;;;;7.88;3.58;;;;;;;;;;5011063;28;20077;-63
2021/07/28 05:13:00;;;;;;;5.78;3.97;;;;;;;;;;5011389;28;20046;-64
2021/07/28 05:15:25;;;;;;;6.22;4.15;;;;;;;;;;5016024;28;20037;-64
2021/07/28 05:17:50;;;;;;;7.70;4.20;;;;;;;;;;5015740;28;20046;-63
2021/07/28 05:20:19;;;;;;;7.60;3.70;;;;;;;;;;5026692;28;20071;-63
2021/07/28 05:22:44;;;;;;;7.68;4.30;;;;;;;;;;5018604;28;20065;-63
2021/07/28 05:25:10;;;;;;;9.48;4.00;;;;;;;;;;5007601;28;20064;-64
2021/07/28 05:27:35;;;;;;;5.80;3.58;;;;;;;;;;5007675;28;20032;-64
2021/07/28 05:30:00;;;;;;;5.28;3.35;;;;;;;;;;5018673;28;20095;-65
2021/07/28 05:32:26;;;;;;;6.07;3.60;;;;;;;;;;5024158;28;20030;-65
2021/07/28 05:34:51;;;;;;;6.65;3.65;;;;;;;;;;5029837;28;20086;-65
2021/07/28 05:37:16;;;;;;;6.10;3.47;;;;;;;;;;5023402;28;20025;-64
2021/07/28 05:39:41;;;;;;;5.80;3.60;;;;;;;;;;5010070;28;20427;-65
2021/07/28 05:42:07;;;;;;;5.30;3.60;;;;;;;;;;5021404;28;20025;-66
2021/07/28 05:44:32;;;;;;;6.70;3.92;;;;;;;;;;5015434;28;20280;-66
2021/07/28 05:46:57;;;;;;;11.82;4.03;;;;;;;;;;5013663;28;20026;-66
2021/07/28 05:49:23;;;;;;;20.40;5.15;;;;;;;;;;5015492;28;20034;-64
2021/07/28 05:51:48;;;;;;;7.47;4.00;;;;;;;;;;5033615;28;20036;-65
2021/07/28 05:54:13;;;;;;;6.40;3.57;;;;;;;;;;5019326;28;20285;-65
2021/07/28 05:56:38;;;;;;;7.32;3.50;;;;;;;;;;5011920;28;20273;-66
2021/07/28 05:59:03;;;;;;;6.13;3.67;;;;;;;;;;5016746;28;20030;-66
2021/07/28 06:01:28;;;;;;;6.40;3.72;;;;;;;;;;5021529;28;20021;-65
2021/07/28 06:03:54;;;;;;;5.97;3.22;;;;;;;;;;5018729;28;20296;-65
2021/07/28 06:06:19;;;;;;;5.38;3.53;;;;;;;;;;5023163;28;20040;-63
2021/07/28 06:08:44;;;;;;;7.05;3.67;;;;;;;;;;5015127;28;20080;-65
2021/07/28 06:11:09;;;;;;;7.60;4.00;;;;;;;;;;5015862;28;20030;-66
2021/07/28 06:13:34;;;;;;;9.65;3.85;;;;;;;;;;5012054;28;20268;-66
2021/07/28 06:16:00;;;;;;;5.50;3.97;;;;;;;;;;5011212;28;20052;-67
2021/07/28 06:18:26;;;;;;;7.03;4.07;;;;;;;;;;5021983;28;20022;-65
2021/07/28 06:20:51;;;;;;;7.65;4.20;;;;;;;;;;5014762;28;20035;-65
2021/07/28 06:23:16;;;;;;;7.17;3.97;;;;;;;;;;5018601;28;20461;-66
2021/07/28 06:25:41;;;;;;;8.25;4.10;;;;;;;;;;5021054;28;20360;-66
2021/07/28 06:28:06;;;;;;;13.27;3.90;;;;;;;;;;5016864;28;20061;-66
2021/07/28 06:30:32;;;;;;;7.65;3.83;;;;;;;;;;5028258;28;20653;-66
2021/07/28 06:32:57;;;;;;;9.13;3.97;;;;;;;;;;5018008;28;20076;-66
2021/07/28 06:35:22;;;;;;;8.48;4.05;;;;;;;;;;5026240;28;20274;-65
2021/07/28 06:37:47;;;;;;;9.25;4.13;;;;;;;;;;5020239;28;20595;-67
2021/07/28 06:40:13;;;;;;;6.38;4.07;;;;;;;;;;5022118;28;20040;-66
2021/07/28 06:42:38;;;;;;;5.53;3.92;;;;;;;;;;5011939;28;20046;-67
2021/07/28 06:45:04;;;;;;;8.30;4.00;;;;;;;;;;5011275;28;20367;-66
2021/07/28 06:47:29;;;;;;;9.70;4.50;;;;;;;;;;5017840;28;20501;-65
2021/07/28 06:49:54;;;;;;;9.18;4.43;;;;;;;;;;5010577;28;20397;-66
2021/07/28 06:52:19;;;;;;;6.22;4.18;;;;;;;;;;5016423;28;20033;-66
2021/07/28 06:54:44;;;;;;;6.65;4.32;;;;;;;;;;5026692;28;20049;-65
2021/07/28 06:57:09;;;;;;;8.23;4.22;;;;;;;;;;5027086;28;20249;-66
2021/07/28 06:59:35;;;;;;;7.97;4.57;;;;;;;;;;5012618;28;20028;-66
2021/07/28 07:02:00;;;;;;;10.10;4.75;;;;;;;;;;5009549;28;20269;-66
2021/07/28 07:04:25;;;;;;;10.67;4.73;;;;;;;;;;5002967;28;20065;-66
2021/07/28 07:06:52;;;;;;;12.00;4.93;;;;;;;;;;5009271;28;20268;-66
2021/07/28 07:09:17;;;;;;;7.68;4.55;;;;;;;;;;5009436;28;20289;-66
2021/07/28 07:11:43;;;;;;;7.07;4.30;;;;;;;;;;5017645;28;20432;-66
2021/07/28 07:14:08;;;;;;;8.75;3.97;;;;;;;;;;5024173;28;20454;-65
2021/07/28 07:16:33;;;;;;;7.67;4.07;;;;;;;;;;5011428;28;20517;-66
2021/07/28 07:18:58;;;;;;;5.93;4.07;;;;;;;;;;5016042;28;20280;-65
2021/07/28 07:21:23;;;;;;;8.43;4.60;;;;;;;;;;5012317;28;20637;-65
2021/07/28 07:23:49;;;;;;;6.20;3.90;;;;;;;;;;5023624;28;20029;-66
2021/07/28 07:26:14;;;;;;;6.32;3.70;;;;;;;;;;5021663;28;20303;-66
2021/07/28 07:28:39;;;;;;;9.77;3.95;;;;;;;;;;5011379;28;20108;-67
2021/07/28 07:31:08;;;;;;;7.63;4.57;;;;;;;;;;5019513;28;20049;-67
2021/07/28 07:36:18;;;;;;;6.95;4.30;;;;;;;;;;5016529;28;20532;-68
2021/07/28 07:38:43;;;;;;;7.47;4.65;;;;;;;;;;5005772;28;20018;-67
2021/07/28 07:41:09;;;;;;;7.43;4.55;;;;;;;;;;5017268;28;20378;-68
2021/07/28 07:43:34;;;;;;;10.88;4.15;;;;;;;;;;5020392;28;20061;-68
2021/07/28 07:45:59;;;;;;;6.50;4.25;;;;;;;;;;5013771;28;20569;-67
2021/07/28 07:48:25;;;;;;;7.07;4.40;;;;;;;;;;5029997;28;20381;-68
2021/07/28 07:50:50;;;;;;;7.32;5.07;;;;;;;;;;5016738;28;20030;-68
2021/07/28 07:53:15;;;;;;;7.43;4.72;;;;;;;;;;5008512;28;20113;-67
2021/07/28 07:55:40;;;;;;;7.27;4.60;;;;;;;;;;5016616;28;20029;-68
2021/07/28 07:58:06;;;;;;;11.90;5.40;;;;;;;;;;5022694;28;20289;-66
2021/07/28 08:00:31;;;;;;;8.85;5.78;;;;;;;;;;5015141;28;20651;-66
2021/07/28 08:02:56;;;;;;;9.52;6.10;;;;;;;;;;5022037;28;20028;-66
2021/07/28 08:05:22;;;;;;;8.10;6.10;;;;;;;;;;5009573;28;20029;-66
2021/07/28 08:07:47;;;;;;;9.65;6.25;;;;;;;;;;5018348;28;20072;-66
2021/07/28 08:10:12;;;;;;;13.82;6.40;;;;;;;;;;5018492;28;20082;-67
2021/07/28 08:12:37;;;;;;;10.50;6.45;;;;;;;;;;5006960;28;20049;-66
2021/07/28 08:15:03;;;;;;;9.40;6.28;;;;;;;;;;5012619;28;20021;-65
2021/07/28 08:17:28;;;;;;;12.05;6.60;;;;;;;;;;5023722;28;20037;-66
2021/07/28 08:19:53;;;;;;;10.70;6.53;;;;;;;;;;5010450;28;20033;-66
2021/07/28 08:22:19;;;;;;;9.95;6.40;;;;;;;;;;5027585;28;20359;-66
2021/07/28 08:24:44;;;;;;;11.27;7.60;;;;;;;;;;5022934;28;20127;-67
2021/07/28 08:27:09;;;;;;;11.85;7.32;;;;;;;;;;5022513;28;20044;-66
2021/07/28 08:29:34;;;;;;;12.40;7.40;;;;;;;;;;5023447;28;20041;-67
2021/07/28 08:31:59;;;;;;;12.13;8.20;;;;;;;;;;5019024;28;20014;-67
2021/07/28 08:34:25;;;;;;;13.97;7.27;;;;;;;;;;5010149;28;20358;-66
2021/07/28 08:36:50;;;;;;;14.00;7.72;;;;;;;;;;5015327;28;20256;-67
2021/07/28 08:39:15;;;;;;;13.45;8.20;;;;;;;;;;5017005;28;20033;-66
2021/07/28 08:41:41;;;;;;;15.00;8.40;;;;;;;;;;5018457;28;20040;-66
2021/07/28 08:44:06;;;;;;;13.25;8.02;;;;;;;;;;5020336;28;20056;-66
2021/07/28 08:46:32;;;;;;;15.83;7.63;;;;;;;;;;5011990;28;20381;-66
2021/07/28 08:48:57;;;;;;;13.68;9.18;;;;;;;;;;5009654;28;20269;-66
2021/07/28 08:51:29;;;;;;;15.25;8.85;;;;;;;;;;5025256;28;20084;-66
2021/07/28 08:53:54;;;;;;;14.38;8.98;;;;;;;;;;5009824;28;20106;-66
2021/07/28 08:56:23;;;;;;;16.08;8.80;;;;;;;;;;5010648;28;20044;-66
2021/07/28 08:58:48;;;;;;;17.13;9.65;;;;;;;;;;5017292;28;20140;-66
2021/07/28 09:01:13;;;;;;;14.93;9.40;;;;;;;;;;5022183;28;20045;-66
2021/07/28 09:03:39;;;;;;;14.77;10.67;;;;;;;;;;5020708;28;20030;-67
2021/07/28 09:06:04;;;;;;;16.67;11.13;;;;;;;;;;5009827;28;20618;-66
2021/07/28 09:08:34;;;;;;;17.63;11.32;;;;;;;;;;5012074;28;20030;-66
2021/07/28 09:11:00;;;;;;;17.38;11.07;;;;;;;;;;5021850;28;20132;-67
2021/07/28 09:13:25;;;;;;;17.88;11.60;;;;;;;;;;5013364;28;20054;-66
2021/07/28 09:15:52;;;;;;;16.10;10.75;;;;;;;;;;5009086;28;20061;-66
2021/07/28 09:18:28;;;;;;;14.98;10.15;;;;;;;;;;5010971;28;20469;-67
2021/07/28 09:20:53;;;;;;;15.13;9.10;;;;;;;;;;5028079;28;20017;-67
2021/07/28 09:23:18;;;;;;;15.23;10.95;;;;;;;;;;5020105;28;20013;-67
2021/07/28 09:25:43;;;;;;;16.90;11.43;;;;;;;;;;5015526;28;20026;-68
2021/07/28 09:28:17;;;;;;;18.60;11.77;;;;;;;;;;5009816;28;20732;-67
2021/07/28 09:30:42;;;;;;;17.25;10.55;;;;;;;;;;5009721;28;20057;-67
2021/07/28 09:33:09;;;;;;;20.07;12.63;;;;;;;;;;5024227;28;20466;-67
2021/07/28 09:35:47;;;;;;;22.17;10.90;;;;;;;;;;5010770;28;20312;-67
2021/07/28 09:38:24;;;;;;;20.25;10.77;;;;;;;;;;5011867;28;20507;-68
2021/07/28 09:40:49;;;;;;;19.25;12.23;;;;;;;;;;5028354;28;20353;-66
2021/07/28 09:43:14;;;;;;;18.37;11.90;;;;;;;;;;5017915;28;20061;-67
2021/07/28 09:45:39;;;;;;;22.00;12.10;;;;;;;;;;5009254;28;20343;-66
2021/07/28 09:48:05;;;;;;;22.40;12.80;;;;;;;;;;5009136;28;20323;-67
2021/07/28 09:50:32;;;;;;;14.43;8.98;;;;;;;;;;5009208;28;20368;-67
2021/07/28 09:53:06;;;;;;;13.18;8.98;;;;;;;;;;5011236;28;20168;-66
2021/07/28 09:55:31;;;;;;;18.02;10.40;;;;;;;;;;5023898;28;20025;-67
2021/07/28 09:57:57;;;;;;;17.88;11.13;;;;;;;;;;5027916;28;20410;-67
2021/07/28 10:00:23;;;;;;;20.70;14.77;;;;;;;;;;5025943;28;20022;-67
2021/07/28 10:02:50;;;;;;;20.75;12.27;;;;;;;;;;5017899;28;20037;-68
2021/07/28 10:05:17;;;;;;;19.00;11.88;;;;;;;;;;5012948;28;20025;-67
2021/07/28 10:07:42;;;;;;;10.93;8.07;;;;;;;;;;5010499;28;20022;-66
2021/07/28 10:10:11;;;;;;;9.13;6.63;;;;;;;;;;5010559;28;20492;-67
2021/07/28 10:12:37;;;;;;;10.88;7.05;;;;;;;;;;5027499;28;20070;-67
2021/07/28 10:15:04;;;;;;;10.73;7.75;;;;;;;;;;5027713;28;20100;-67
2021/07/28 10:17:31;;;;;;;12.32;8.27;;;;;;;;;;5013429;28;20022;-67
2021/07/28 10:19:57;;;;;;;12.80;7.72;;;;;;;;;;5012115;28;20022;-67
2021/07/28 10:22:22;;;;;;;9.88;6.95;;;;;;;;;;5026229;28;20068;-67
2021/07/28 10:24:48;;;;;;;12.10;6.93;;;;;;;;;;5018357;28;20666;-66
2021/07/28 10:27:14;;;;;;;11.85;7.63;;;;;;;;;;5027644;28;20108;-67
2021/07/28 10:29:39;;;;;;;11.32;8.93;;;;;;;;;;5005491;28;20042;-68
2021/07/28 10:32:04;;;;;;;11.67;7.47;;;;;;;;;;5031135;28;20029;-67
2021/07/28 10:34:30;;;;;;;10.35;6.72;;;;;;;;;;5011376;28;20277;-67
2021/07/28 10:37:04;;;;;;;10.77;6.18;;;;;;;;;;5012239;28;20397;-68
2021/07/28 10:39:47;;;;;;;8.75;5.22;;;;;;;;;;5011810;28;20036;-66
2021/07/28 10:42:16;;;;;;;11.00;6.00;;;;;;;;;;5025796;28;20025;-67
2021/07/28 10:44:56;;;;;;;10.13;6.03;;;;;;;;;;5031023;28;20803;-67
2021/07/28 10:47:40;;;;;;;6.18;4.50;;;;;;;;;;5027924;28;20053;-67
2021/07/28 10:50:29;;;;;;;5.97;4.60;;;;;;;;;;5017547;28;20156;-67
2021/07/28 10:52:57;;;;;;;6.63;4.13;;;;;;;;;;5019140;28;20021;-68
2021/07/28 10:55:24;;;;;;;7.10;4.20;;;;;;;;;;5019291;28;20492;-67
2021/07/28 10:57:52;;;;;;;9.43;4.38;;;;;;;;;;5017762;28;20022;-66
2021/07/28 11:03:05;;;;;;;6.82;4.25;;;;;;;;;;5007449;28;20369;-67
2021/07/28 11:05:31;;;;;;;5.50;3.90;;;;;;;;;;5020702;28;20388;-67
2021/07/28 11:08:05;;;;;;;7.05;4.65;;;;;;;;;;5020962;28;20018;-67
2021/07/28 11:10:30;;;;;;;8.60;4.55;;;;;;;;;;5022813;28;20040;-66
2021/07/28 11:12:56;;;;;;;7.00;4.73;;;;;;;;;;5020257;28;20022;-67
2021/07/28 11:15:21;;;;;;;9.82;5.28;;;;;;;;;;5026937;28;20335;-66
2021/07/28 11:17:51;;;;;;;7.88;5.32;;;;;;;;;;5023027;28;20096;-66
2021/07/28 11:20:35;;;;;;;10.45;5.65;;;;;;;;;;5012713;28;20040;-67
2021/07/28 11:23:19;;;;;;;6.95;4.93;;;;;;;;;;5016050;28;20013;-66
2021/07/28 11:25:44;;;;;;;7.95;5.25;;;;;;;;;;5012889;28;20056;-66
2021/07/28 11:28:09;;;;;;;11.38;5.30;;;;;;;;;;5009774;28;20014;-66
2021/07/28 11:30:35;;;;;;;6.67;4.80;;;;;;;;;;5013618;28;20025;-66
2021/07/28 11:33:16;;;;;;;11.40;6.77;;;;;;;;;;5016340;28;20652;-65
2021/07/28 11:35:41;;;;;;;6.65;4.72;;;;;;;;;;5012890;28;20296;-66
2021/07/28 11:38:16;;;;;;;7.68;5.35;;;;;;;;;;5012252;28;20428;-67
2021/07/28 11:40:51;;;;;;;7.95;4.60;;;;;;;;;;5015288;28;20826;-66
2021/07/28 11:43:20;;;;;;;7.82;5.07;;;;;;;;;;5011597;28;20064;-67
2021/07/28 11:45:45;;;;;;;6.88;4.40;;;;;;;;;;5010406;28;20489;-65
2021/07/28 11:48:31;;;;;;;6.25;4.25;;;;;;;;;;5010923;28;20030;-66
2021/07/28 11:50:56;;;;;;;9.50;4.50;;;;;;;;;;5010980;28;20136;-66
2021/07/28 11:53:25;;;;;;;6.50;3.80;;;;;;;;;;5009208;28;20137;-65
2021/07/28 11:55:51;;;;;;;6.70;3.70;;;;;;;;;;5013778;28;20022;-65
2021/07/28 11:58:16;;;;;;;7.10;4.03;;;;;;;;;;5015140;28;20273;-66
2021/07/28 12:00:41;;;;;;;6.87;4.47;;;;;;;;;;5010207;28;20040;-66
2021/07/28 12:03:23;;;;;;;6.35;4.13;;;;;;;;;;5014910;28;20375;-66
2021/07/28 12:05:57;;;;;;;8.60;4.70;;;;;;;;;;5004786;28;20029;-66
2021/07/28 12:08:29;;;;;;;5.75;4.20;;;;;;;;;;5008866;28;20022;-67
2021/07/28 12:11:07;;;;;;;6.55;4.10;;;;;;;;;;5005167;28;20482;-65
2021/07/28 12:13:40;;;;;;;6.43;4.50;;;;;;;;;;5011515;28;20022;-65
2021/07/28 12:16:05;;;;;;;8.45;4.68;;;;;;;;;;5018412;28;20025;-66
2021/07/28 12:18:43;;;;;;;6.10;4.07;;;;;;;;;;5026380;28;20128;-66
2021/07/28 12:21:09;;;;;;;5.68;4.05;;;;;;;;;;5019370;28;20081;-65
2021/07/28 12:23:34;;;;;;;7.68;4.25;;;;;;;;;;5019879;28;20499;-66
2021/07/28 12:26:00;;;;;;;6.18;3.83;;;;;;;;;;5018403;28;20061;-66
2021/07/28 12:28:43;;;;;;;9.18;4.60;;;;;;;;;;5021518;28;20402;-65
2021/07/28 12:31:09;;;;;;;6.82;4.25;;;;;;;;;;5015322;28;20079;-66
2021/07/28 12:33:34;;;;;;;7.75;4.30;;;;;;;;;;5012525;28;20025;-66
2021/07/28 12:36:00;;;;;;;5.35;3.60;;;;;;;;;;5023689;28;20096;-66
2021/07/28 12:38:26;;;;;;;5.50;3.67;;;;;;;;;;5023576;28;20018;-67
2021/07/28 12:41:01;;;;;;;5.20;3.67;;;;;;;;;;5014255;28;20169;-66
2021/07/28 12:43:28;;;;;;;6.00;3.88;;;;;;;;;;5021629;28;20063;-65
2021/07/28 12:45:56;;;;;;;5.63;3.40;;;;;;;;;;5020022;28;20025;-66
2021/07/28 12:48:22;;;;;;;8.23;4.25;;;;;;;;;;5009047;28;20030;-66
2021/07/28 12:50:47;;;;;;;5.28;3.38;;;;;;;;;;5019373;28;20033;-64
2021/07/28 12:53:14;;;;;;;5.95;3.40;;;;;;;;;;5027676;28;20029;-65
2021/07/28 12:55:39;;;;;;;4.95;3.42;;;;;;;;;;5017432;28;20384;-66
2021/07/28 12:58:04;;;;;;;5.43;3.35;;;;;;;;;;5019872;28;20026;-65
2021/07/28 13:00:29;;;;;;;5.75;3.65;;;;;;;;;;5009213;28;20080;-65
2021/07/28 13:02:55;;;;;;;6.70;3.20;;;;;;;;;;5013548;28;20025;-66
2021/07/28 13:05:21;;;;;;;5.20;3.80;;;;;;;;;;5014010;28;20049;-65
2021/07/28 13:08:08;;;;;;;6.03;3.22;;;;;;;;;;5021138;28;20029;-66
2021/07/28 13:10:32;;;;;;;6.18;3.63;;;;;;;;;;5010888;28;20045;-65
2021/07/28 13:12:58;;;;;;;5.95;3.40;;;;;;;;;;5008292;28;20014;-68
2021/07/28 13:15:23;;;;;;;6.10;3.55;;;;;;;;;;5015932;28;20101;-65
2021/07/28 13:17:49;;;;;;;6.00;3.58;;;;;;;;;;5022131;28;20022;-65
2021/07/28 13:20:14;;;;;;;7.68;4.00;;;;;;;;;;5007924;28;20128;-65
2021/07/28 13:22:39;;;;;;;5.88;3.88;;;;;;;;;;5008874;28;20026;-66
2021/07/28 13:25:05;;;;;;;7.35;3.80;;;;;;;;;;5010617;28;20022;-65
2021/07/28 13:27:30;;;;;;;6.95;4.20;;;;;;;;;;5014769;28;20024;-66
2021/07/28 13:29:55;;;;;;;5.63;3.60;;;;;;;;;;5021413;28;20388;-66
2021/07/28 13:32:21;;;;;;;6.40;4.03;;;;;;;;;;5028054;28;20369;-66
2021/07/28 13:34:46;;;;;;;7.47;4.30;;;;;;;;;;5027859;28;20267;-66
2021/07/28 13:37:11;;;;;;;5.72;3.83;;;;;;;;;;5009235;28;20330;-65
2021/07/28 13:39:37;;;;;;;7.05;4.00;;;;;;;;;;5013571;28;20522;-65
2021/07/28 13:42:02;;;;;;;6.05;3.75;;;;;;;;;;5027502;28;20021;-66
2021/07/28 13:44:27;;;;;;;6.30;4.15;;;;;;;;;;5016690;28;20054;-66
2021/07/28 13:46:52;;;;;;;6.70;4.03;;;;;;;;;;5015394;28;20029;-66
2021/07/28 13:49:17;;;;;;;6.00;3.92;;;;;;;;;;5016670;28;20291;-65
2021/07/28 13:51:43;;;;;;;8.02;4.28;;;;;;;;;;5013348;28;20342;-66
2021/07/28 13:54:08;;;;;;;6.07;4.20;;;;;;;;;;5025681;28;20026;-67
2021/07/28 13:56:33;;;;;;;7.47;3.63;;;;;;;;;;5015705;28;20033;-67
2021/07/28 13:58:58;;;;;;;5.90;3.47;;;;;;;;;;5032133;28;20755;-65
2021/07/28 14:01:24;;;;;;;8.27;4.00;;;;;;;;;;5031954;28;20240;-66
2021/07/28 14:03:49;;;;;;;6.22;4.03;;;;;;;;;;5025189;28;20349;-66
2021/07/28 14:06:14;;;;;;;5.75;3.80;;;;;;;;;;5016807;28;20153;-67
2021/07/28 14:08:39;;;;;;;6.67;3.93;;;;;;;;;;5012347;28;20472;-66
2021/07/28 14:11:08;;;;;;;5.77;4.00;;;;;;;;;;5025402;28;20335;-66
2021/07/28 14:13:33;;;;;;;5.90;4.00;;;;;;;;;;5013216;28;20252;-66
2021/07/28 14:15:58;;;;;;;6.22;3.80;;;;;;;;;;5008556;28;20065;-66
2021/07/28 14:18:23;;;;;;;5.63;3.78;;;;;;;;;;5017307;28;20048;-66
2021/07/28 14:20:49;;;;;;;7.13;3.97;;;;;;;;;;5022825;28;20476;-66
2021/07/28 14:23:14;;;;;;;6.65;4.63;;;;;;;;;;5018420;28;20268;-66
2021/07/28 14:25:39;;;;;;;7.70;4.77;;;;;;;;;;5026852;28;20022;-66
2021/07/28 14:28:05;;;;;;;7.30;4.55;;;;;;;;;;5012300;28;20751;-66
2021/07/28 14:30:30;;;;;;;8.23;4.75;;;;;;;;;;5011892;28;20041;-68
2021/07/28 14:32:56;;;;;;;8.18;4.45;;;;;;;;;;5012416;28;20057;-65
2021/07/28 14:35:21;;;;;;;8.57;4.47;;;;;;;;;;5015381;28;20026;-65
2021/07/28 14:37:46;;;;;;;7.63;4.40;;;;;;;;;;5018282;28;20369;-65
2021/07/28 14:40:11;;;;;;;8.67;4.40;;;;;;;;;;5037863;28;20477;-67
2021/07/28 14:42:36;;;;;;;5.55;3.78;;;;;;;;;;5017640;28;20280;-66